Monday, June 25, 2018, 7:35 PM GMT
Back to Local

CZBF, Bathurst Airport Aviation Weather Reporting Station

Location: , , Canada Lat: 47.633
Local Time: 7:35 PM GMT (19:35 GMT) Lon: -65.75
Time Zone: GMT Elev: 193 ft

Show me the last for .
Show Decoded

2018-06-25 19:00 METAR CZBF 251900Z 05009KT 15SM FEW030 FEW070 BKN140 BKN200 14/06 A3001 RMK
                 CU1AC1AC4CI1 CU TR SLP166 =
2018-06-25 18:00 METAR CZBF 251800Z 05010G16KT 020V090 15SM FEW020 SCT070 BKN140 BKN220 13/07
                 A3001 RMK CF1AC3AC4CI1 CF TR CI TR SLP166 =
2018-06-25 17:00 METAR CZBF 251700Z 04005KT 15SM SCT070 BKN200 12/07 A3000 RMK AC3CI4 SLP162 =
2018-06-25 16:00 METAR CZBF 251600Z 05010G16KT 15SM FEW015 BKN100 BKN220 12/07 A3000 RMK
                 SC1AC5CI1 SLP163 =
2018-06-25 15:00 METAR CZBF 251500Z 03010G15KT 360V080 15SM FEW015 BKN100 11/07 A3001 RMK SC2AS5
                 AC ASOCTD SLP164 =
2018-06-25 14:00 METAR CZBF 251400Z 04009KT 010V070 15SM SCT012 SCT070 OVC100 11/07 A3000 RMK
                 SC3AC1AS4 SLP162 =
2018-06-25 13:00 METAR CZBF 251300Z 04007KT 360V070 15SM SCT010 OVC070 11/07 A2999 RMK SC4AS4
                 SLP159 =
2018-06-25 12:00 METAR CZBF 251200Z 03004KT 360V070 15SM SCT007 OVC070 11/08 A2998 RMK SC3AS5
                 SLP155 =
2018-06-25 11:00 METAR CZBF 251100Z 04005KT 350V070 15SM SCT007 OVC050 11/08 A2998 RMK SC4SC4
                 SLP155 =
2018-06-25 10:00 METAR CZBF 251000Z VRB02KT 15SM BKN007 OVC050 10/09 A2997 RMK SC6SC2 SLP153 =
2018-06-25 09:27 METAR CZBF 250927Z 36002KT 15SM BKN008 BKN050 09/08 A2997 RMK SC6SC1 SLP153 =
2018-06-25 09:00 METAR CZBF 250900Z 33003KT 15SM SCT007 BKN050 09/08 A2997 RMK SC4SC3 SLP152 =
2018-06-25 08:40 METAR CZBF 250840Z VRB02KT 15SM SCT008 BKN050 09/08 A2996 RMK SF3SC4 SLP149 =
2018-06-25 08:00 METAR CZBF 250800Z 36003KT 15SM SCT010 BKN040 BKN080 09/08 A2995 RMK SF3SC4AC1
                 AC TR SLP145 =
2018-06-25 07:00 METAR CZBF 250700Z VRB03KT 15SM OVC012 09/08 A2994 RMK SC8 SLP141 =
2018-06-25 06:00 METAR CZBF 250600Z 00000KT 15SM FEW100 SCT210 BKN250 08/07 A2993 RMK AC1CC3CS3
                 SLP140 =
2018-06-25 05:00 METAR CZBF 250500Z 00000KT 15SM SCT100 BKN240 09/07 A2994 RMK AC3CS3 HALO SLP140
                 =
2018-06-25 04:00 METAR CZBF 250400Z 00000KT 15SM SCT060 BKN240 10/08 A2994 RMK SC3CS4 SLP141 =
2018-06-25 03:00 METAR CZBF 250300Z 00000KT 15SM BKN060 BKN090 10/08 A2994 RMK SC5AC2 SLP141 =
2018-06-25 02:00 METAR CZBF 250200Z 12003KT 15SM BKN060 OVC090 11/07 A2993 RMK SC7AC1 SLP138 =
2018-06-25 01:00 METAR CZBF 250100Z 08002KT 15SM FEW040 BKN060 BKN100 BKN240 12/07 A2993 RMK
                 SC1SC6AC1CI1 AC TR CI TR SLP136 =
2018-06-25 00:00 METAR CZBF 250000Z VRB02KT 15SM SCT050 SCT090 BKN240 12/07 A2991 RMK SC3AC1CS3
                 SLP131 =
2018-06-24 23:39 METAR CZBF 242339Z 06002KT 15SM FEW050 SCT080 BKN120 12/07 A2990 RMK SC1AC3AS3
                 SLP129 =
2018-06-24 23:00 METAR CZBF 242300Z 06004KT 040V110 15SM -RA SCT080 BKN120 OVC240 13/07 A2989 RMK
                 AC3AS4CS1 SLP125 =
2018-06-24 22:48 METAR CZBF 242248Z 07006KT 050V110 15SM -RA SCT080 BKN120 OVC240 12/07 A2989 RMK
                 AC4AS3CS1 SLP123 =
2018-06-24 22:00 METAR CZBF 242200Z 07006KT 15SM OVC070 13/08 A2987 RMK AC8 SLP116 DENSITY ALT
                 200FT =
2018-06-24 21:00 METAR CZBF 242100Z 04008KT 15SM OVC070 13/08 A2985 RMK AC8 SLP110 =
2018-06-24 20:00 METAR CZBF 242000Z 03006KT 350V070 15SM OVC070 14/08 A2983 RMK AC8 SLP104
                 DENSITY ALT 300FT =

Support USWX by starting your Amazon purchase here.